createdAt,value
2023-04-29T00:01:29.959Z,3.20
2023-04-29T00:03:56.975Z,4.07
2023-04-29T00:06:24.007Z,5.78
2023-04-29T00:08:50.738Z,9.98
2023-04-29T00:11:22.842Z,9.27
2023-04-29T00:13:49.546Z,10.35
2023-04-29T00:16:19.280Z,11.68
2023-04-29T00:18:45.944Z,16.00
2023-04-29T00:21:12.595Z,11.52
2023-04-29T00:23:45.326Z,11.55
2023-04-29T00:26:12.151Z,11.30
2023-04-29T00:28:44.086Z,11.55
2023-04-29T00:31:10.917Z,11.75
2023-04-29T00:33:37.675Z,10.77
2023-04-29T00:36:04.570Z,11.30
2023-04-29T00:38:31.340Z,12.68
2023-04-29T00:40:58.225Z,12.23
2023-04-29T00:43:25.063Z,13.23
2023-04-29T00:45:52.053Z,12.55
2023-04-29T00:48:22.788Z,13.55
2023-04-29T00:50:49.505Z,14.23
2023-04-29T00:53:16.285Z,14.63
2023-04-29T00:55:44.827Z,14.75
2023-04-29T00:58:12.445Z,15.15
2023-04-29T01:00:41.978Z,14.40
2023-04-29T01:03:09.534Z,15.20
2023-04-29T01:05:36.386Z,15.00
2023-04-29T01:08:38.096Z,15.23
2023-04-29T01:11:12.846Z,14.27
2023-04-29T01:13:58.663Z,16.10
2023-04-29T01:16:37.567Z,16.50
2023-04-29T01:19:18.485Z,15.07
2023-04-29T01:21:49.259Z,15.05
2023-04-29T01:24:17.072Z,16.70
2023-04-29T01:26:55.840Z,15.40
2023-04-29T01:29:27.165Z,17.42
2023-04-29T01:32:07.262Z,15.85
2023-04-29T01:34:53.512Z,17.45
2023-04-29T01:37:30.547Z,15.75
2023-04-29T01:40:09.331Z,16.48
2023-04-29T01:42:49.322Z,16.65
2023-04-29T01:45:22.311Z,15.00
2023-04-29T01:47:52.507Z,16.77
2023-04-29T01:50:22.049Z,16.52
2023-04-29T01:52:48.848Z,17.48
2023-04-29T01:55:15.549Z,16.63
2023-04-29T01:57:42.235Z,16.85
2023-04-29T02:00:11.808Z,15.27
2023-04-29T02:02:38.521Z,14.13
2023-04-29T02:05:05.640Z,15.05
2023-04-29T02:07:33.643Z,13.20
2023-04-29T02:10:03.223Z,13.32
2023-04-29T02:12:33.640Z,12.57
2023-04-29T02:15:03.192Z,12.93
2023-04-29T02:17:30.791Z,13.10
2023-04-29T02:19:57.486Z,15.10
2023-04-29T02:22:24.760Z,15.23
2023-04-29T02:24:51.457Z,15.65
2023-04-29T02:27:18.212Z,15.48
2023-04-29T02:29:45.022Z,14.70
2023-04-29T02:32:11.734Z,15.70
2023-04-29T02:34:38.561Z,17.23
2023-04-29T02:37:05.334Z,16.90
2023-04-29T02:39:55.563Z,16.63
2023-04-29T02:42:24.431Z,16.27
2023-04-29T02:44:51.692Z,16.25
2023-04-29T02:47:18.373Z,16.70
2023-04-29T02:49:48.828Z,16.85
2023-04-29T02:52:15.590Z,15.98
2023-04-29T02:54:42.354Z,14.40
2023-04-29T02:57:09.088Z,16.05
2023-04-29T02:59:35.754Z,14.20
2023-04-29T03:02:06.097Z,15.35
2023-04-29T03:04:35.339Z,15.05
2023-04-29T03:07:04.504Z,13.80
2023-04-29T03:09:31.271Z,13.48
2023-04-29T03:11:58.015Z,13.25
2023-04-29T03:14:27.639Z,13.43
2023-04-29T03:17:04.636Z,13.40
2023-04-29T03:19:31.996Z,14.02
2023-04-29T03:21:58.649Z,12.80
2023-04-29T03:24:30.788Z,13.50
2023-04-29T03:27:00.254Z,12.20
2023-04-29T03:29:27.148Z,13.93
2023-04-29T03:32:06.943Z,12.05
2023-04-29T03:34:35.224Z,12.48
2023-04-29T03:37:01.920Z,12.73
2023-04-29T03:39:28.649Z,10.30
2023-04-29T03:41:55.621Z,10.00
2023-04-29T03:44:22.328Z,8.00
2023-04-29T03:46:51.605Z,8.05
2023-04-29T03:49:21.180Z,10.35
2023-04-29T03:51:48.166Z,10.95
2023-04-29T03:54:15.008Z,10.98
2023-04-29T03:56:45.422Z,10.73
2023-04-29T03:59:12.150Z,10.90
2023-04-29T04:01:42.149Z,12.63
2023-04-29T04:04:09.143Z,11.90
2023-04-29T04:06:42.072Z,11.75
2023-04-29T04:09:09.686Z,12.23
2023-04-29T04:11:36.392Z,13.10
2023-04-29T04:14:03.233Z,13.73
2023-04-29T04:16:36.391Z,15.95
2023-04-29T04:19:03.100Z,15.85
2023-04-29T04:21:29.791Z,15.65
2023-04-29T04:23:56.493Z,15.18
2023-04-29T04:26:23.433Z,16.77
2023-04-29T04:28:52.729Z,16.40
2023-04-29T04:31:23.579Z,17.25
2023-04-29T04:33:50.495Z,16.73
2023-04-29T04:36:17.283Z,16.90
2023-04-29T04:38:43.988Z,16.40
2023-04-29T04:41:12.167Z,17.73
2023-04-29T04:43:46.128Z,18.33
2023-04-29T04:46:14.177Z,16.52
2023-04-29T04:48:45.652Z,17.67
2023-04-29T04:51:16.176Z,17.42
2023-04-29T04:53:42.869Z,17.42
2023-04-29T04:56:09.558Z,16.73
2023-04-29T04:58:40.439Z,18.10
2023-04-29T05:01:07.252Z,17.85
2023-04-29T05:03:34.115Z,17.65
2023-04-29T05:06:01.369Z,18.85
2023-04-29T05:08:28.794Z,17.98
2023-04-29T05:10:55.525Z,18.70
2023-04-29T05:13:22.342Z,19.77
2023-04-29T05:15:51.788Z,19.27
2023-04-29T05:18:18.538Z,19.58
2023-04-29T05:20:45.250Z,18.35
2023-04-29T05:23:12.055Z,18.00
2023-04-29T05:25:44.575Z,16.58
2023-04-29T05:28:18.107Z,16.58
2023-04-29T05:30:45.036Z,17.48
2023-04-29T05:33:11.720Z,16.13
2023-04-29T05:35:47.853Z,16.23
2023-04-29T05:38:15.488Z,15.55
2023-04-29T05:40:42.304Z,14.27
2023-04-29T05:43:09.178Z,12.80
2023-04-29T05:45:37.076Z,12.00
2023-04-29T05:48:04.022Z,11.73
2023-04-29T05:50:30.809Z,10.10
2023-04-29T05:52:57.465Z,10.07
2023-04-29T05:55:24.555Z,9.30
2023-04-29T05:57:58.362Z,9.73
2023-04-29T06:00:30.685Z,10.40
2023-04-29T06:02:59.027Z,10.15
2023-04-29T06:05:30.225Z,10.65
2023-04-29T06:08:00.261Z,9.93
2023-04-29T06:10:27.053Z,10.90
2023-04-29T06:13:06.209Z,10.55
2023-04-29T06:15:34.489Z,10.55
2023-04-29T06:18:01.213Z,11.13
2023-04-29T06:20:28.023Z,11.13
2023-04-29T06:23:02.038Z,10.55
2023-04-29T06:25:30.746Z,12.20
2023-04-29T06:27:57.956Z,10.80
2023-04-29T06:30:27.246Z,11.90
2023-04-29T06:32:59.384Z,11.45
2023-04-29T06:35:26.166Z,12.20
2023-04-29T06:37:53.446Z,12.45
2023-04-29T06:40:20.121Z,12.55
2023-04-29T06:42:56.430Z,13.00
2023-04-29T06:45:31.564Z,12.32
2023-04-29T06:48:07.703Z,14.07
2023-04-29T06:50:34.480Z,14.02
2023-04-29T06:53:01.154Z,15.75
2023-04-29T06:55:27.826Z,13.80
2023-04-29T06:57:57.510Z,14.35
2023-04-29T07:00:24.269Z,14.93
2023-04-29T07:02:51.187Z,15.15
2023-04-29T07:05:17.970Z,13.40
2023-04-29T07:07:44.674Z,13.45
2023-04-29T07:10:11.396Z,12.63
2023-04-29T07:12:47.416Z,12.23
2023-04-29T07:15:14.183Z,12.07
2023-04-29T07:17:40.948Z,12.70
2023-04-29T07:20:09.924Z,11.70
2023-04-29T07:22:36.572Z,12.75
2023-04-29T07:25:03.329Z,11.60
2023-04-29T07:27:30.078Z,11.00
2023-04-29T07:29:56.914Z,11.85
2023-04-29T07:32:29.445Z,10.85
2023-04-29T07:35:05.978Z,10.75
2023-04-29T07:37:43.987Z,9.48
2023-04-29T07:40:12.555Z,10.68
2023-04-29T07:42:39.364Z,10.57
2023-04-29T07:45:06.747Z,10.27
2023-04-29T07:47:33.537Z,10.55
2023-04-29T07:50:05.182Z,10.65
2023-04-29T07:52:31.834Z,12.15
2023-04-29T07:54:58.569Z,12.23
2023-04-29T07:57:25.352Z,12.52
2023-04-29T07:59:55.700Z,12.85
2023-04-29T08:02:25.460Z,15.68
2023-04-29T08:04:55.348Z,16.13
2023-04-29T08:07:22.838Z,15.13
2023-04-29T08:09:52.308Z,15.43
2023-04-29T08:12:19.035Z,14.65
2023-04-29T08:14:45.764Z,15.15
2023-04-29T08:17:12.460Z,15.70
2023-04-29T08:19:39.226Z,14.32
2023-04-29T08:22:05.895Z,15.65
2023-04-29T08:24:32.821Z,15.25
2023-04-29T08:27:03.817Z,15.27
2023-04-29T08:29:37.590Z,14.43
2023-04-29T08:32:05.042Z,14.15
2023-04-29T08:34:40.685Z,14.98
2023-04-29T08:37:07.520Z,13.65
2023-04-29T08:39:34.233Z,13.45
2023-04-29T08:42:09.504Z,12.77
2023-04-29T08:44:38.777Z,12.80
2023-04-29T08:47:06.843Z,12.55
2023-04-29T08:49:40.407Z,12.52
2023-04-29T08:52:07.130Z,11.93
2023-04-29T08:54:35.951Z,12.85
2023-04-29T08:57:02.972Z,11.98
2023-04-29T08:59:30.524Z,12.93
2023-04-29T09:01:58.810Z,12.50
2023-04-29T09:04:46.860Z,13.15
2023-04-29T09:07:13.933Z,12.88
2023-04-29T09:09:43.109Z,12.52
2023-04-29T09:12:09.799Z,12.05
2023-04-29T09:14:37.118Z,11.57
2023-04-29T09:17:03.827Z,12.68
2023-04-29T09:19:31.387Z,11.93
2023-04-29T09:22:03.362Z,11.68
2023-04-29T09:24:39.470Z,12.23
2023-04-29T09:27:06.253Z,11.73
2023-04-29T09:29:37.291Z,12.77
2023-04-29T09:32:23.435Z,13.83
2023-04-29T09:34:53.030Z,13.30
2023-04-29T09:37:27.567Z,13.00
2023-04-29T09:40:02.538Z,13.88
2023-04-29T09:42:42.687Z,12.50
2023-04-29T09:45:09.654Z,11.95
2023-04-29T09:47:37.337Z,12.68
2023-04-29T09:50:12.507Z,13.63
2023-04-29T09:52:41.962Z,13.52
2023-04-29T09:55:12.662Z,13.98
2023-04-29T09:57:45.067Z,14.05
2023-04-29T10:00:17.701Z,13.75
2023-04-29T10:02:47.073Z,15.50
2023-04-29T10:05:17.009Z,13.98
2023-04-29T10:07:46.336Z,18.38
2023-04-29T10:10:13.219Z,18.33
2023-04-29T10:12:51.748Z,18.02
2023-04-29T10:15:47.503Z,18.25
2023-04-29T10:18:42.865Z,18.73
2023-04-29T10:21:17.308Z,20.15
2023-04-29T10:23:44.898Z,20.17
2023-04-29T10:26:18.883Z,20.30
2023-04-29T10:28:47.891Z,20.85
2023-04-29T10:31:17.250Z,19.70
2023-04-29T10:33:49.451Z,20.63
2023-04-29T10:36:20.248Z,20.80
2023-04-29T10:38:56.105Z,21.52
2023-04-29T10:41:26.858Z,20.85
2023-04-29T10:43:56.998Z,20.67
2023-04-29T10:46:28.128Z,19.73
2023-04-29T10:49:01.641Z,19.58
2023-04-29T10:51:32.953Z,18.95
2023-04-29T10:54:18.318Z,19.50
2023-04-29T10:56:50.671Z,19.63
2023-04-29T10:59:46.966Z,19.02
2023-04-29T11:02:20.707Z,20.45
2023-04-29T11:05:10.100Z,17.08
2023-04-29T11:07:36.982Z,17.88
2023-04-29T11:10:04.679Z,19.02
2023-04-29T11:12:33.172Z,17.27
2023-04-29T11:15:01.331Z,17.05
2023-04-29T11:17:35.971Z,17.77
2023-04-29T11:20:04.013Z,16.25
2023-04-29T11:22:30.881Z,16.00
2023-04-29T11:24:58.650Z,17.33
2023-04-29T11:27:37.813Z,16.83
2023-04-29T11:30:07.152Z,18.05
2023-04-29T11:32:41.964Z,16.52
2023-04-29T11:35:16.281Z,14.90
2023-04-29T11:37:44.843Z,15.07
2023-04-29T11:40:13.681Z,17.15
2023-04-29T11:42:50.685Z,16.73
2023-04-29T11:45:18.833Z,16.63
2023-04-29T11:47:47.264Z,17.40
2023-04-29T11:50:17.861Z,17.08
2023-04-29T11:52:49.688Z,16.55
2023-04-29T11:55:22.342Z,17.75
2023-04-29T11:57:49.952Z,18.17
2023-04-29T12:00:18.996Z,17.30
2023-04-29T12:02:47.098Z,18.98
2023-04-29T12:05:15.114Z,19.10
2023-04-29T12:07:42.029Z,18.95
2023-04-29T12:12:52.407Z,19.40
2023-04-29T12:15:22.302Z,21.58
2023-04-29T12:17:49.041Z,20.92
2023-04-29T12:20:23.879Z,20.83
2023-04-29T12:22:53.113Z,19.38
2023-04-29T12:25:19.888Z,20.63
2023-04-29T12:27:46.606Z,21.30
2023-04-29T12:30:13.434Z,20.13
2023-04-29T12:32:40.155Z,19.40
2023-04-29T12:35:15.159Z,20.67
2023-04-29T12:37:41.856Z,19.55
2023-04-29T12:40:14.932Z,20.38
2023-04-29T12:42:41.660Z,19.83
2023-04-29T12:45:08.891Z,22.52
2023-04-29T12:47:35.614Z,21.60
2023-04-29T12:50:02.525Z,20.23
2023-04-29T12:52:30.848Z,22.67
2023-04-29T12:54:57.918Z,19.33
2023-04-29T12:57:24.689Z,21.40
2023-04-29T12:59:54.326Z,21.98
2023-04-29T13:02:23.969Z,19.20
2023-04-29T13:04:51.805Z,20.23
2023-04-29T13:07:18.677Z,20.38
2023-04-29T13:09:45.485Z,19.33
2023-04-29T13:12:12.652Z,19.05
2023-04-29T13:14:42.396Z,18.88
2023-04-29T13:17:13.873Z,19.02
2023-04-29T13:19:51.049Z,18.13
2023-04-29T13:22:19.084Z,18.30
2023-04-29T13:24:46.133Z,17.00
2023-04-29T13:27:14.935Z,13.90
2023-04-29T13:29:48.929Z,14.40
2023-04-29T13:32:20.867Z,13.00
2023-04-29T13:34:50.965Z,14.73
2023-04-29T13:37:17.855Z,13.05
2023-04-29T13:39:47.756Z,13.90
2023-04-29T13:42:26.509Z,12.55
2023-04-29T13:44:55.089Z,11.90
2023-04-29T13:47:26.123Z,11.50
2023-04-29T13:50:22.245Z,13.48
2023-04-29T13:56:11.501Z,13.97
2023-04-29T14:03:10.189Z,14.23
2023-04-29T14:05:37.084Z,13.88
2023-04-29T14:08:03.955Z,13.40
2023-04-29T14:10:30.791Z,13.95
2023-04-29T14:12:57.637Z,12.00
2023-04-29T14:15:25.927Z,13.60
2023-04-29T14:17:52.715Z,12.73
2023-04-29T14:20:19.758Z,12.05
2023-04-29T14:22:46.599Z,12.27
2023-04-29T14:25:14.795Z,12.27
2023-04-29T14:27:41.512Z,11.73
2023-04-29T14:30:08.864Z,10.75
2023-04-29T14:32:35.613Z,11.73
2023-04-29T14:35:08.504Z,12.18
2023-04-29T14:37:35.232Z,11.88
2023-04-29T14:40:02.107Z,10.88
2023-04-29T14:42:28.991Z,11.68
2023-04-29T14:44:55.946Z,11.93
2023-04-29T14:47:22.771Z,12.05
2023-04-29T14:49:50.645Z,12.20
2023-04-29T14:52:17.351Z,10.98
2023-04-29T14:54:44.081Z,11.65
2023-04-29T14:57:10.867Z,12.43
2023-04-29T14:59:48.879Z,12.15
2023-04-29T15:02:19.523Z,11.70
2023-04-29T15:04:46.414Z,11.90
2023-04-29T15:07:13.911Z,12.25
2023-04-29T15:09:46.291Z,12.43
2023-04-29T15:12:14.160Z,10.90
2023-04-29T15:14:40.850Z,11.93
2023-04-29T15:17:14.482Z,11.45
2023-04-29T15:19:46.736Z,10.98
2023-04-29T15:22:18.259Z,10.23
2023-04-29T15:24:53.148Z,10.90
2023-04-29T15:27:24.966Z,11.55
2023-04-29T15:29:54.323Z,12.00
2023-04-29T15:32:23.702Z,13.18
2023-04-29T15:34:50.888Z,11.52
2023-04-29T15:37:17.588Z,13.48
2023-04-29T15:39:45.982Z,14.40
2023-04-29T15:42:12.710Z,11.75
2023-04-29T15:44:39.678Z,13.80
2023-04-29T15:47:06.455Z,12.65
2023-04-29T15:49:33.310Z,13.18
2023-04-29T15:52:03.101Z,12.95
2023-04-29T15:54:30.853Z,13.32
2023-04-29T15:57:02.207Z,11.85
2023-04-29T15:59:28.912Z,13.98
2023-04-29T16:01:55.825Z,12.93
2023-04-29T16:04:24.236Z,13.43
2023-04-29T16:06:53.104Z,13.60
2023-04-29T16:09:22.677Z,13.68
2023-04-29T16:11:50.389Z,13.30
2023-04-29T16:14:33.078Z,12.70
2023-04-29T16:17:02.014Z,12.75
2023-04-29T16:19:28.842Z,13.27
2023-04-29T16:21:55.905Z,14.00
2023-04-29T16:24:22.658Z,13.93
2023-04-29T16:26:52.686Z,13.25
2023-04-29T16:29:19.396Z,11.55
2023-04-29T16:31:46.137Z,14.20
2023-04-29T16:34:12.883Z,14.57
2023-04-29T16:36:50.007Z,15.15
2023-04-29T16:39:29.278Z,14.20
2023-04-29T16:42:00.634Z,13.48
2023-04-29T16:44:30.709Z,13.82
2023-04-29T16:46:57.548Z,13.20
2023-04-29T16:49:28.347Z,13.48
2023-04-29T16:51:56.414Z,13.15
2023-04-29T16:54:26.256Z,12.77
2023-04-29T16:57:02.143Z,12.18
2023-04-29T16:59:29.627Z,11.43
2023-04-29T17:01:56.505Z,12.85
2023-04-29T17:04:24.202Z,13.23
2023-04-29T17:06:59.884Z,13.52
2023-04-29T17:09:26.747Z,12.85
2023-04-29T17:11:53.703Z,12.73
2023-04-29T17:14:20.424Z,12.15
2023-04-29T17:16:56.097Z,12.20
2023-04-29T17:19:24.533Z,12.65
2023-04-29T17:21:51.261Z,11.18
2023-04-29T17:24:28.914Z,11.13
2023-04-29T17:26:58.348Z,12.80
2023-04-29T17:29:29.414Z,12.60
2023-04-29T17:31:56.116Z,13.05
2023-04-29T17:34:22.800Z,13.05
2023-04-29T17:36:53.478Z,12.55
2023-04-29T17:39:20.349Z,12.25
2023-04-29T17:41:47.022Z,12.63
2023-04-29T17:44:13.756Z,13.15
2023-04-29T17:46:43.939Z,13.07
2023-04-29T17:49:10.659Z,13.07
2023-04-29T17:51:37.521Z,14.27
2023-04-29T17:54:07.756Z,12.85
2023-04-29T17:56:40.454Z,13.77
2023-04-29T17:59:10.035Z,12.95
2023-04-29T18:01:37.759Z,12.80
2023-04-29T18:04:09.942Z,13.77
2023-04-29T18:06:42.835Z,13.38
2023-04-29T18:09:09.575Z,12.73
2023-04-29T18:11:45.046Z,12.10
2023-04-29T18:14:15.780Z,13.20
2023-04-29T18:16:44.079Z,12.35
2023-04-29T18:19:32.274Z,13.13
2023-04-29T18:22:03.393Z,12.85
2023-04-29T18:24:38.189Z,12.50
2023-04-29T18:27:13.822Z,13.45
2023-04-29T18:29:40.556Z,13.25
2023-04-29T18:32:13.195Z,14.10
2023-04-29T18:34:49.604Z,13.65
2023-04-29T18:37:27.021Z,12.88
2023-04-29T18:39:56.626Z,14.15
2023-04-29T18:42:23.542Z,13.57
2023-04-29T18:44:50.236Z,14.15
2023-04-29T18:47:19.930Z,13.45
2023-04-29T18:49:47.999Z,15.60
2023-04-29T18:52:18.512Z,15.23
2023-04-29T18:54:45.179Z,15.95
2023-04-29T18:57:14.339Z,15.57
2023-04-29T18:59:48.349Z,15.65
2023-04-29T19:02:15.034Z,16.08
2023-04-29T19:04:41.771Z,15.88
2023-04-29T19:07:08.426Z,16.40
2023-04-29T19:09:46.598Z,16.08
2023-04-29T19:12:13.297Z,15.80
2023-04-29T19:14:46.545Z,16.17
2023-04-29T19:17:18.023Z,17.48
2023-04-29T19:19:44.709Z,17.23
2023-04-29T19:22:11.566Z,18.90
2023-04-29T19:24:38.269Z,17.80
2023-04-29T19:27:05.234Z,17.77
2023-04-29T19:29:39.094Z,19.67
2023-04-29T19:32:05.892Z,18.73
2023-04-29T19:34:40.543Z,18.40
2023-04-29T19:37:14.022Z,18.10
2023-04-29T19:39:40.988Z,19.20
2023-04-29T19:42:07.835Z,18.35
2023-04-29T19:44:37.515Z,19.17
2023-04-29T19:47:04.324Z,19.40
2023-04-29T19:49:33.708Z,19.77
2023-04-29T19:52:04.659Z,18.40
2023-04-29T19:54:31.352Z,18.75
2023-04-29T19:57:00.824Z,20.52
2023-04-29T19:59:27.709Z,19.90
2023-04-29T20:01:54.531Z,21.13
2023-04-29T20:04:23.534Z,20.65
2023-04-29T20:06:51.291Z,20.23
2023-04-29T20:09:21.002Z,21.70
2023-04-29T20:11:48.559Z,22.05
2023-04-29T20:14:18.246Z,22.17
2023-04-29T20:16:47.736Z,21.00
2023-04-29T20:19:19.438Z,21.75
2023-04-29T20:21:52.093Z,23.30
2023-04-29T20:24:18.936Z,23.13
2023-04-29T20:26:45.590Z,21.52
2023-04-29T20:29:12.249Z,22.23
2023-04-29T20:31:42.643Z,21.95
2023-04-29T20:34:19.238Z,21.75
2023-04-29T20:36:49.423Z,22.13
2023-04-29T20:39:18.725Z,22.27
2023-04-29T20:41:45.375Z,22.00
2023-04-29T20:44:19.777Z,22.52
2023-04-29T20:46:49.308Z,21.40
2023-04-29T20:49:16.080Z,22.08
2023-04-29T20:51:42.792Z,21.15
2023-04-29T20:54:09.468Z,20.65
2023-04-29T20:56:44.098Z,22.50
2023-04-29T20:59:11.803Z,20.55
2023-04-29T21:01:38.872Z,21.77
2023-04-29T21:04:11.101Z,20.70
2023-04-29T21:06:40.038Z,22.42
2023-04-29T21:09:07.013Z,23.38
2023-04-29T21:11:33.734Z,23.27
2023-04-29T21:14:00.424Z,20.42
2023-04-29T21:16:27.117Z,25.25
2023-04-29T21:18:53.846Z,22.20
2023-04-29T21:21:29.290Z,24.08
2023-04-29T21:23:56.013Z,24.00
2023-04-29T21:26:24.974Z,23.33
2023-04-29T21:28:52.668Z,22.08
2023-04-29T21:31:19.422Z,21.50
2023-04-29T21:33:46.592Z,20.38
2023-04-29T21:36:13.660Z,20.90
2023-04-29T21:38:40.598Z,21.10
2023-04-29T21:41:40.104Z,20.08
2023-04-29T21:44:07.330Z,19.92
2023-04-29T21:46:35.073Z,20.45
2023-04-29T21:49:06.463Z,18.70
2023-04-29T21:51:34.695Z,21.75
2023-04-29T21:54:01.655Z,19.15
2023-04-29T21:56:28.356Z,19.60
2023-04-29T21:58:55.045Z,19.73
2023-04-29T22:01:21.795Z,18.27
2023-04-29T22:03:53.070Z,19.45
2023-04-29T22:06:20.192Z,19.77
2023-04-29T22:08:46.897Z,17.95
2023-04-29T22:11:20.909Z,18.92
2023-04-29T22:13:48.001Z,18.10
2023-04-29T22:16:14.890Z,18.75
2023-04-29T22:18:41.590Z,19.52
2023-04-29T22:21:08.495Z,17.92
2023-04-29T22:23:38.273Z,17.90
2023-04-29T22:26:04.918Z,18.25
2023-04-29T22:28:34.821Z,19.27
2023-04-29T22:31:04.173Z,18.10
2023-04-29T22:33:30.956Z,16.92
2023-04-29T22:35:57.654Z,19.30
2023-04-29T22:38:28.379Z,16.98
2023-04-29T22:40:55.299Z,19.77
2023-04-29T22:43:21.934Z,19.50
2023-04-29T22:45:56.356Z,18.05
2023-04-29T22:48:25.942Z,17.27
2023-04-29T22:50:58.088Z,17.52
2023-04-29T22:53:26.622Z,18.98
2023-04-29T22:55:57.552Z,18.88
2023-04-29T22:58:26.864Z,19.77
2023-04-29T23:00:56.105Z,18.92
2023-04-29T23:03:28.853Z,20.00
2023-04-29T23:05:58.875Z,18.15
2023-04-29T23:08:26.277Z,18.95
2023-04-29T23:10:55.912Z,19.85
2023-04-29T23:13:22.863Z,21.58
2023-04-29T23:15:56.855Z,20.85
2023-04-29T23:18:23.615Z,19.52
2023-04-29T23:20:50.320Z,20.98
2023-04-29T23:23:20.755Z,20.98
2023-04-29T23:25:47.432Z,20.90
2023-04-29T23:28:17.823Z,22.63
2023-04-29T23:30:46.766Z,21.60
2023-04-29T23:33:13.925Z,21.23
2023-04-29T23:35:40.666Z,23.13
2023-04-29T23:38:12.313Z,22.38
2023-04-29T23:40:38.961Z,21.83
2023-04-29T23:43:05.680Z,23.33
2023-04-29T23:45:32.377Z,23.17
2023-04-29T23:48:04.085Z,21.50
2023-04-29T23:50:32.296Z,23.08
2023-04-29T23:53:03.447Z,21.70
2023-04-29T23:55:30.274Z,23.65
2023-04-29T23:58:00.179Z,22.63
